createdAt,value
2017-09-11T00:00:18.219Z,99.99
2017-09-11T00:01:17.885Z,99.99
2017-09-11T00:02:18.203Z,99.99
2017-09-11T00:03:18.183Z,99.99
2017-09-11T00:04:17.847Z,99.99
2017-09-11T00:05:17.834Z,99.99
2017-09-11T00:06:17.816Z,99.99
2017-09-11T00:07:17.808Z,99.99
2017-09-11T00:08:18.109Z,99.99
2017-09-11T00:09:18.103Z,99.99
2017-09-11T00:10:18.083Z,99.99
2017-09-11T00:11:17.749Z,99.99
2017-09-11T00:12:17.767Z,99.99
2017-09-11T00:13:18.050Z,99.99
2017-09-11T00:14:18.029Z,99.99
2017-09-11T00:15:17.695Z,99.99
2017-09-11T00:16:17.682Z,99.99
2017-09-11T00:17:17.672Z,99.99
2017-09-11T00:18:17.977Z,99.99
2017-09-11T00:19:17.646Z,99.99
2017-09-11T00:20:17.973Z,99.99
2017-09-11T00:21:17.618Z,99.99
2017-09-11T00:22:17.601Z,99.99
2017-09-11T00:23:18.109Z,99.99
2017-09-11T00:24:17.894Z,99.99
2017-09-11T00:25:17.582Z,99.99
2017-09-11T00:26:17.545Z,99.99
2017-09-11T00:27:17.852Z,99.99
2017-09-11T00:28:17.521Z,99.99
2017-09-11T00:29:17.832Z,99.99
2017-09-11T00:30:17.495Z,99.99
2017-09-11T00:31:17.483Z,99.99
2017-09-11T00:32:17.469Z,99.99
2017-09-11T00:33:17.454Z,99.99
2017-09-11T00:34:17.763Z,99.99
2017-09-11T00:35:17.429Z,99.99
2017-09-11T00:36:17.746Z,99.99
2017-09-11T00:37:17.396Z,99.99
2017-09-11T00:38:17.706Z,99.99
2017-09-11T00:39:17.370Z,99.99
2017-09-11T00:40:17.376Z,99.99
2017-09-11T00:41:17.350Z,99.99
2017-09-11T00:42:17.652Z,99.99
2017-09-11T00:43:17.318Z,99.99
2017-09-11T00:44:17.304Z,99.99
2017-09-11T00:45:17.294Z,99.99
2017-09-11T00:46:17.292Z,99.99
2017-09-11T00:47:17.594Z,99.99
2017-09-11T00:48:17.251Z,99.99
2017-09-11T00:49:17.240Z,99.99
2017-09-11T00:50:17.547Z,99.99
2017-09-11T00:51:17.221Z,99.99
2017-09-11T00:52:17.516Z,99.99
2017-09-11T00:53:17.189Z,99.99
2017-09-11T00:54:17.499Z,99.99
2017-09-11T00:55:17.482Z,99.99
2017-09-11T00:56:17.147Z,99.99
2017-09-11T00:57:17.506Z,99.99
2017-09-11T00:58:17.438Z,99.99
2017-09-11T00:59:17.426Z,99.99
2017-09-11T01:00:17.091Z,99.99
2017-09-11T01:01:17.398Z,99.99
2017-09-11T01:02:17.065Z,99.99
2017-09-11T01:03:17.374Z,99.99
2017-09-11T01:04:17.360Z,99.99
2017-09-11T01:05:17.348Z,99.99
2017-09-11T01:06:17.336Z,99.99
2017-09-11T01:07:17.331Z,99.99
2017-09-11T01:08:17.316Z,99.99
2017-09-11T01:09:17.291Z,99.99
2017-09-11T01:10:16.965Z,99.99
2017-09-11T01:11:17.266Z,99.99
2017-09-11T01:12:17.251Z,99.99
2017-09-11T01:13:16.917Z,99.99
2017-09-11T01:14:17.226Z,99.99
2017-09-11T01:15:17.214Z,99.99
2017-09-11T01:16:17.199Z,99.99
2017-09-11T01:17:16.869Z,99.99
2017-09-11T01:18:17.171Z,99.99
2017-09-11T01:19:16.839Z,99.99
2017-09-11T01:20:16.826Z,99.99
2017-09-11T01:21:16.814Z,99.99
2017-09-11T01:22:16.797Z,99.99
2017-09-11T01:23:17.110Z,99.99
2017-09-11T01:24:17.092Z,99.99
2017-09-11T01:25:16.761Z,99.99
2017-09-11T01:26:16.746Z,99.99
2017-09-11T01:27:16.731Z,99.99
2017-09-11T01:28:17.046Z,99.99
2017-09-11T01:29:17.029Z,99.99
2017-09-11T01:30:17.019Z,99.99
2017-09-11T01:31:16.683Z,99.99
2017-09-11T01:32:16.985Z,99.99
2017-09-11T01:33:16.977Z,99.99
2017-09-11T01:34:16.959Z,99.99
2017-09-11T01:35:16.967Z,99.99
2017-09-11T01:36:16.947Z,99.99
2017-09-11T01:37:16.923Z,99.99
2017-09-11T01:38:16.585Z,99.99
2017-09-11T01:39:16.574Z,99.99
2017-09-11T01:40:16.889Z,99.99
2017-09-11T01:41:16.865Z,99.99
2017-09-11T01:42:16.855Z,99.99
2017-09-11T01:43:16.523Z,99.99
2017-09-11T01:44:16.825Z,99.99
2017-09-11T01:45:16.490Z,99.99
2017-09-11T01:46:16.797Z,99.99
2017-09-11T01:47:16.791Z,99.99
2017-09-11T01:48:16.775Z,99.99
2017-09-11T01:49:16.440Z,99.99
2017-09-11T01:50:16.423Z,99.99
2017-09-11T01:51:16.419Z,99.99
2017-09-11T01:52:16.719Z,99.99
2017-09-11T01:53:16.714Z,99.99
2017-09-11T01:54:16.698Z,99.99
2017-09-11T01:55:16.357Z,99.99
2017-09-11T01:56:16.667Z,99.99
2017-09-11T01:57:16.326Z,99.99
2017-09-11T01:58:16.643Z,99.99
2017-09-11T01:59:16.304Z,99.99
2017-09-11T02:00:16.289Z,99.99
2017-09-11T02:01:16.276Z,99.99
2017-09-11T02:02:16.261Z,99.99
2017-09-11T02:03:16.247Z,99.99
2017-09-11T02:04:16.239Z,99.99
2017-09-11T02:05:16.226Z,99.99
2017-09-11T02:06:16.530Z,99.99
2017-09-11T02:07:16.518Z,99.99
2017-09-11T02:08:16.502Z,99.99
2017-09-11T02:09:16.489Z,99.99
2017-09-11T02:10:16.475Z,99.99
2017-09-11T02:11:16.463Z,99.99
2017-09-11T02:12:16.130Z,99.99
2017-09-11T02:13:16.436Z,99.99
2017-09-11T02:14:16.419Z,99.99
2017-09-11T02:15:16.087Z,99.99
2017-09-11T02:16:16.394Z,99.99
2017-09-11T02:17:16.376Z,99.99
2017-09-11T02:18:16.049Z,99.99
2017-09-11T02:19:16.032Z,99.99
2017-09-11T02:20:16.336Z,99.99
2017-09-11T02:21:16.331Z,99.99
2017-09-11T02:22:16.314Z,99.99
2017-09-11T02:23:16.502Z,99.99
2017-09-11T02:24:15.969Z,99.99
2017-09-11T02:25:15.952Z,99.99
2017-09-11T02:26:16.257Z,99.99
2017-09-11T02:27:15.922Z,99.99
2017-09-11T02:28:16.233Z,99.99
2017-09-11T02:29:16.223Z,99.99
2017-09-11T02:30:16.209Z,99.99
2017-09-11T02:31:16.200Z,99.99
2017-09-11T02:32:16.054Z,99.99
2017-09-11T02:33:16.160Z,99.99
2017-09-11T02:34:15.830Z,99.99
2017-09-11T02:35:15.820Z,99.99
2017-09-11T02:36:15.795Z,99.99
2017-09-11T02:37:16.118Z,99.99
2017-09-11T02:38:16.123Z,99.99
2017-09-11T02:39:16.076Z,99.99
2017-09-11T02:40:16.069Z,99.99
2017-09-11T02:41:16.050Z,99.99
2017-09-11T02:42:15.719Z,99.99
2017-09-11T02:43:16.026Z,99.99
2017-09-11T02:44:16.014Z,99.99
2017-09-11T02:45:16.000Z,99.99
2017-09-11T02:46:15.667Z,99.99
2017-09-11T02:47:15.682Z,99.99
2017-09-11T02:48:15.639Z,99.99
2017-09-11T02:49:15.624Z,99.99
2017-09-11T02:50:15.610Z,99.99
2017-09-11T02:51:15.917Z,99.99
2017-09-11T02:52:15.901Z,99.99
2017-09-11T02:53:15.568Z,99.99
2017-09-11T02:54:15.877Z,99.99
2017-09-11T02:55:15.536Z,99.99
2017-09-11T02:56:15.526Z,99.99
2017-09-11T02:57:15.842Z,99.99
2017-09-11T02:58:15.832Z,99.99
2017-09-11T02:59:15.807Z,99.99
2017-09-11T03:00:15.794Z,99.99
2017-09-11T03:01:15.459Z,99.99
2017-09-11T03:02:15.773Z,99.99
2017-09-11T03:03:15.429Z,99.99
2017-09-11T03:04:15.739Z,99.99
2017-09-11T03:05:15.407Z,99.99
2017-09-11T03:06:15.718Z,99.99
2017-09-11T03:07:15.697Z,99.99
2017-09-11T03:08:15.692Z,99.99
2017-09-11T03:09:15.685Z,99.99
2017-09-11T03:10:15.336Z,99.99
2017-09-11T03:11:15.673Z,99.99
2017-09-11T03:12:15.630Z,99.99
2017-09-11T03:13:15.616Z,99.99
2017-09-11T03:14:15.602Z,99.99
2017-09-11T03:15:15.268Z,99.99
2017-09-11T03:16:15.258Z,99.99
2017-09-11T03:17:15.568Z,99.99
2017-09-11T03:18:15.224Z,99.99
2017-09-11T03:19:15.214Z,99.99
2017-09-11T03:20:15.198Z,99.99
2017-09-11T03:21:15.518Z,99.99
2017-09-11T03:22:15.173Z,99.99
2017-09-11T03:23:15.162Z,99.99
2017-09-11T03:24:15.467Z,99.99
2017-09-11T03:25:15.450Z,99.99
2017-09-11T03:26:15.441Z,99.99
2017-09-11T03:27:15.425Z,99.99
2017-09-11T03:28:15.410Z,99.99
2017-09-11T03:29:15.400Z,99.99
2017-09-11T03:30:15.397Z,99.99
2017-09-11T03:31:15.055Z,99.99
2017-09-11T03:32:15.360Z,99.99
2017-09-11T03:33:15.024Z,99.99
2017-09-11T03:34:15.020Z,99.99
2017-09-11T03:35:14.998Z,99.99
2017-09-11T03:36:14.983Z,99.99
2017-09-11T03:37:15.294Z,99.99
2017-09-11T03:38:14.960Z,99.99
2017-09-11T03:39:14.950Z,99.99
2017-09-11T03:40:14.936Z,99.99
2017-09-11T03:41:15.237Z,99.99
2017-09-11T03:42:15.223Z,99.99
2017-09-11T03:43:14.890Z,99.99
2017-09-11T03:44:15.197Z,99.99
2017-09-11T03:45:14.880Z,99.99
2017-09-11T03:46:15.192Z,99.99
2017-09-11T03:47:15.154Z,99.99
2017-09-11T03:48:14.827Z,99.99
2017-09-11T03:49:15.131Z,99.99
2017-09-11T03:50:15.192Z,99.99
2017-09-11T03:51:14.780Z,99.99
2017-09-11T03:52:14.770Z,99.99
2017-09-11T03:53:15.082Z,99.99
2017-09-11T03:54:15.061Z,99.99
2017-09-11T03:55:15.065Z,99.99
2017-09-11T03:56:15.038Z,99.99
2017-09-11T03:57:14.698Z,99.99
2017-09-11T03:58:14.683Z,99.99
2017-09-11T03:59:14.995Z,99.99
2017-09-11T04:00:14.977Z,99.99
2017-09-11T04:01:14.966Z,99.99
2017-09-11T04:02:14.953Z,99.99
2017-09-11T04:03:14.613Z,99.99
2017-09-11T04:04:14.920Z,99.99
2017-09-11T04:05:14.909Z,99.99
2017-09-11T04:06:14.928Z,99.99
2017-09-11T04:07:14.559Z,99.99
2017-09-11T04:08:14.858Z,99.99
2017-09-11T04:09:14.531Z,99.99
2017-09-11T04:10:14.844Z,99.99
2017-09-11T04:11:14.496Z,99.99
2017-09-11T04:12:14.836Z,99.99
2017-09-11T04:13:14.470Z,99.99
2017-09-11T04:14:14.775Z,99.99
2017-09-11T04:15:14.440Z,99.99
2017-09-11T04:16:14.429Z,99.76
2017-09-11T04:17:14.410Z,99.66
2017-09-11T04:18:14.402Z,98.13
2017-09-11T04:19:14.709Z,97.75
2017-09-11T04:20:14.367Z,97.37
2017-09-11T04:21:14.673Z,97.08
2017-09-11T04:22:14.336Z,96.89
2017-09-11T04:23:14.844Z,96.42
2017-09-11T04:24:14.308Z,96.51
2017-09-11T04:25:14.297Z,96.13
2017-09-11T04:26:14.279Z,95.56
2017-09-11T04:27:14.591Z,95.56
2017-09-11T04:28:14.607Z,95.36
2017-09-11T04:29:14.240Z,95.65
2017-09-11T04:30:14.541Z,95.75
2017-09-11T04:31:14.525Z,95.41
2017-09-11T04:32:14.194Z,96.22
2017-09-11T04:33:14.495Z,95.56
2017-09-11T04:34:14.165Z,95.7
2017-09-11T04:35:14.469Z,94.98
2017-09-11T04:36:14.452Z,95.36
2017-09-11T04:37:14.472Z,94.89
2017-09-11T04:38:14.423Z,94.98
2017-09-11T04:39:14.407Z,94.7
2017-09-11T04:40:14.401Z,95.07
2017-09-11T04:41:14.393Z,94.7
2017-09-11T04:42:14.046Z,94.79
2017-09-11T04:43:14.354Z,94.41
2017-09-11T04:44:14.336Z,94.98
2017-09-11T04:45:14.352Z,94.31
2017-09-11T04:46:14.332Z,93.45
2017-09-11T04:47:13.991Z,93.55
2017-09-11T04:48:14.281Z,93.16
2017-09-11T04:49:14.263Z,93.16
2017-09-11T04:50:14.248Z,93.26
2017-09-11T04:51:14.235Z,93.16
2017-09-11T04:52:13.901Z,92.97
2017-09-11T04:53:14.208Z,92.5
2017-09-11T04:54:13.867Z,91.93
2017-09-11T04:55:13.862Z,92.3
2017-09-11T04:56:14.162Z,92.3
2017-09-11T04:57:13.824Z,92.3
2017-09-11T04:58:14.135Z,92.11
2017-09-11T04:59:14.119Z,91.83
2017-09-11T05:00:13.781Z,91.83
2017-09-11T05:01:13.777Z,91.83
2017-09-11T05:02:14.076Z,91.54
2017-09-11T05:03:14.080Z,91.45
2017-09-11T05:04:13.729Z,91.54
2017-09-11T05:05:14.036Z,92.11
2017-09-11T05:06:13.701Z,92.21
2017-09-11T05:07:13.690Z,92.4
2017-09-11T05:08:13.673Z,92.5
2017-09-11T05:09:13.656Z,92.59
2017-09-11T05:10:13.955Z,92.97
2017-09-11T05:11:13.622Z,92.88
2017-09-11T05:12:13.607Z,93.36
2017-09-11T05:13:13.913Z,93.55
2017-09-11T05:14:13.909Z,93.84
2017-09-11T05:15:13.894Z,94.12
2017-09-11T05:16:13.872Z,94.22
2017-09-11T05:17:13.536Z,94.51
2017-09-11T05:18:13.842Z,94.7
2017-09-11T05:19:13.825Z,94.6
2017-09-11T05:20:13.813Z,93.84
2017-09-11T05:21:13.798Z,94.22
2017-09-11T05:22:13.464Z,94.31
2017-09-11T05:23:13.782Z,92.3
2017-09-11T05:24:13.428Z,91.64
2017-09-11T05:25:13.747Z,90.59
2017-09-11T05:26:13.725Z,88.01
2017-09-11T05:27:13.711Z,86.76
2017-09-11T05:28:13.372Z,84.95
2017-09-11T05:29:13.359Z,83.99
2017-09-11T05:30:13.668Z,82.46
2017-09-11T05:31:13.652Z,82.46
2017-09-11T05:32:13.317Z,81.32
2017-09-11T05:33:13.304Z,81.51
2017-09-11T05:34:13.606Z,81.6
2017-09-11T05:35:13.596Z,81.13
2017-09-11T05:36:13.580Z,80.65
2017-09-11T05:37:13.240Z,80.65
2017-09-11T05:38:13.226Z,80.74
2017-09-11T05:39:13.532Z,81.51
2017-09-11T05:40:13.201Z,81.22
2017-09-11T05:41:13.500Z,81.7
2017-09-11T05:42:13.490Z,81.41
2017-09-11T05:43:13.476Z,81.7
2017-09-11T05:44:13.139Z,81.7
2017-09-11T05:45:13.449Z,82.46
2017-09-11T05:46:13.112Z,81.99
2017-09-11T05:47:13.422Z,81.7
2017-09-11T05:48:13.405Z,81.99
2017-09-11T05:49:13.069Z,82.46
2017-09-11T05:50:13.056Z,81.7
2017-09-11T05:51:13.037Z,81.51
2017-09-11T05:52:13.346Z,81.7
2017-09-11T05:53:13.335Z,81.79
2017-09-11T05:54:13.318Z,81.41
2017-09-11T05:55:12.985Z,82.46
2017-09-11T05:56:13.287Z,82.46
2017-09-11T05:57:13.274Z,82.56
2017-09-11T05:58:12.937Z,82.18
2017-09-11T05:59:12.925Z,82.56
2017-09-11T06:00:12.909Z,82.46
2017-09-11T06:01:13.219Z,82.75
2017-09-11T06:02:13.203Z,82.94
2017-09-11T06:03:13.191Z,82.65
2017-09-11T06:04:12.853Z,82.84
2017-09-11T06:05:12.838Z,82.56
2017-09-11T06:06:12.824Z,82.65
2017-09-11T06:07:12.810Z,82.37
2017-09-11T06:08:13.121Z,81.22
2017-09-11T06:09:12.779Z,81.32
2017-09-11T06:10:13.094Z,81.32
2017-09-11T06:11:12.757Z,81.22
2017-09-11T06:12:12.739Z,81.32
2017-09-11T06:13:13.049Z,81.51
2017-09-11T06:14:12.716Z,81.22
2017-09-11T06:15:13.024Z,81.13
2017-09-11T06:16:12.685Z,81.79
2017-09-11T06:17:12.667Z,81.32
2017-09-11T06:18:12.977Z,81.13
2017-09-11T06:19:12.646Z,81.6
2017-09-11T06:20:12.953Z,81.32
2017-09-11T06:21:12.616Z,81.32
2017-09-11T06:22:12.921Z,81.6
2017-09-11T06:23:13.344Z,81.41
2017-09-11T06:24:12.572Z,81.51
2017-09-11T06:25:12.879Z,82.46
2017-09-11T06:26:12.867Z,82.46
2017-09-11T06:27:12.527Z,82.65
2017-09-11T06:28:12.522Z,82.94
2017-09-11T06:29:12.506Z,83.9
2017-09-11T06:30:12.485Z,86.14
2017-09-11T06:31:12.471Z,87.19
2017-09-11T06:32:12.458Z,87.76
2017-09-11T06:33:12.762Z,89.01
2017-09-11T06:34:12.750Z,90.44
2017-09-11T06:35:12.741Z,91.02
2017-09-11T06:36:12.398Z,91.59
2017-09-11T06:37:12.394Z,91.97
2017-09-11T06:38:12.696Z,93.21
2017-09-11T06:39:12.685Z,94.17
2017-09-11T06:40:12.346Z,94.46
2017-09-11T06:41:12.650Z,94.74
2017-09-11T06:42:12.321Z,95.22
2017-09-11T06:43:12.625Z,96.94
2017-09-11T06:44:12.293Z,97.33
2017-09-11T06:45:12.599Z,97.61
2017-09-11T06:46:12.590Z,97.71
2017-09-11T06:47:12.574Z,99.04
2017-09-11T06:48:12.566Z,99.81
2017-09-11T06:49:12.547Z,99.99
2017-09-11T06:50:12.214Z,99.99
2017-09-11T06:51:12.519Z,99.99
2017-09-11T06:52:12.182Z,99.99
2017-09-11T06:53:12.492Z,99.99
2017-09-11T06:54:12.473Z,99.99
2017-09-11T06:55:12.149Z,99.99
2017-09-11T06:56:12.453Z,99.99
2017-09-11T06:57:12.433Z,99.99
2017-09-11T06:58:12.421Z,99.99
2017-09-11T06:59:12.410Z,99.99
2017-09-11T07:00:12.076Z,99.99
2017-09-11T07:01:12.382Z,99.99
2017-09-11T07:02:12.366Z,99.99
2017-09-11T07:03:12.351Z,99.99
2017-09-11T07:04:12.373Z,99.99
2017-09-11T07:05:12.329Z,99.99
2017-09-11T07:06:11.992Z,99.99
2017-09-11T07:07:11.976Z,99.99
2017-09-11T07:08:12.287Z,99.99
2017-09-11T07:09:11.953Z,99.99
2017-09-11T07:10:11.942Z,99.99
2017-09-11T07:11:12.249Z,99.99
2017-09-11T07:12:11.915Z,99.99
2017-09-11T07:13:12.215Z,99.99
2017-09-11T07:14:12.207Z,99.99
2017-09-11T07:15:12.191Z,99.99
2017-09-11T07:16:11.859Z,99.99
2017-09-11T07:17:12.167Z,99.99
2017-09-11T07:18:12.153Z,99.99
2017-09-11T07:19:11.817Z,99.99
2017-09-11T07:20:11.808Z,99.99
2017-09-11T07:21:11.789Z,99.99
2017-09-11T07:22:11.774Z,99.99
2017-09-11T07:23:11.761Z,99.99
2017-09-11T07:24:12.075Z,99.99
2017-09-11T07:25:12.056Z,99.99
2017-09-11T07:26:11.733Z,99.99
2017-09-11T07:27:11.708Z,99.99
2017-09-11T07:28:11.695Z,99.99
2017-09-11T07:29:12.003Z,99.99
2017-09-11T07:30:11.668Z,99.99
2017-09-11T07:31:11.653Z,99.99
2017-09-11T07:32:11.637Z,99.99
2017-09-11T07:33:11.956Z,99.99
2017-09-11T07:34:11.612Z,99.99
2017-09-11T07:35:11.601Z,99.99
2017-09-11T07:36:11.907Z,99.99
2017-09-11T07:37:11.897Z,99.99
2017-09-11T07:38:11.879Z,99.99
2017-09-11T07:39:11.868Z,99.99
2017-09-11T07:40:11.851Z,99.99
2017-09-11T07:41:11.838Z,99.99
2017-09-11T07:42:11.831Z,99.99
2017-09-11T07:43:11.815Z,99.99
2017-09-11T07:44:11.481Z,99.99
2017-09-11T07:45:11.788Z,99.99
2017-09-11T07:46:11.777Z,99.99
2017-09-11T07:47:11.771Z,99.99
2017-09-11T07:48:11.430Z,99.99
2017-09-11T07:49:11.745Z,99.99
2017-09-11T07:50:11.412Z,99.99
2017-09-11T07:51:11.710Z,99.99
2017-09-11T07:52:11.378Z,99.99
2017-09-11T07:53:11.690Z,99.99
2017-09-11T07:54:11.677Z,99.99
2017-09-11T07:55:11.657Z,99.99
2017-09-11T07:56:11.656Z,99.99
2017-09-11T07:57:11.315Z,99.99
2017-09-11T07:58:11.620Z,99.99
2017-09-11T07:59:11.612Z,99.99
2017-09-11T08:00:11.276Z,99.99
2017-09-11T08:01:11.584Z,99.99
2017-09-11T08:02:11.249Z,99.99
2017-09-11T08:03:11.555Z,99.99
2017-09-11T08:04:11.546Z,99.99
2017-09-11T08:05:11.537Z,99.99
2017-09-11T08:06:11.519Z,99.99
2017-09-11T08:07:11.183Z,99.99
2017-09-11T08:08:11.171Z,99.99
2017-09-11T08:09:11.481Z,99.99
2017-09-11T08:10:11.462Z,99.99
2017-09-11T08:11:11.468Z,99.99
2017-09-11T08:12:11.435Z,99.99
2017-09-11T08:13:11.104Z,99.99
2017-09-11T08:14:11.413Z,99.99
2017-09-11T08:15:11.406Z,99.99
2017-09-11T08:16:11.068Z,99.99
2017-09-11T08:17:11.373Z,99.99
2017-09-11T08:18:11.365Z,99.99
2017-09-11T08:19:11.030Z,99.99
2017-09-11T08:20:11.336Z,99.99
2017-09-11T08:21:11.009Z,99.99
2017-09-11T08:22:10.991Z,99.99
2017-09-11T08:23:11.302Z,99.99
2017-09-11T08:24:11.291Z,99.99
2017-09-11T08:25:10.962Z,99.99
2017-09-11T08:26:10.943Z,99.99
2017-09-11T08:27:11.250Z,99.99
2017-09-11T08:28:10.921Z,99.99
2017-09-11T08:29:10.906Z,99.99
2017-09-11T08:30:11.217Z,99.99
2017-09-11T08:31:10.883Z,99.99
2017-09-11T08:32:10.869Z,99.99
2017-09-11T08:33:11.217Z,99.99
2017-09-11T08:34:11.165Z,99.99
2017-09-11T08:35:11.152Z,99.99
2017-09-11T08:36:10.822Z,99.99
2017-09-11T08:37:10.810Z,99.99
2017-09-11T08:38:10.795Z,99.99
2017-09-11T08:39:11.103Z,99.99
2017-09-11T08:40:10.770Z,99.99
2017-09-11T08:41:11.085Z,99.99
2017-09-11T08:42:11.071Z,99.99
2017-09-11T08:43:11.057Z,99.99
2017-09-11T08:44:10.754Z,99.99
2017-09-11T08:45:10.711Z,99.99
2017-09-11T08:46:11.029Z,99.99
2017-09-11T08:47:11.015Z,99.99
2017-09-11T08:48:10.994Z,99.99
2017-09-11T08:49:10.664Z,99.99
2017-09-11T08:50:10.974Z,99.99
2017-09-11T08:51:10.646Z,99.99
2017-09-11T08:52:10.631Z,99.99
2017-09-11T08:53:10.939Z,99.99
2017-09-11T08:54:10.605Z,99.99
2017-09-11T08:55:10.914Z,99.99
2017-09-11T08:56:10.583Z,99.99
2017-09-11T08:57:10.569Z,99.99
2017-09-11T08:58:10.882Z,99.99
2017-09-11T08:59:10.873Z,99.99
2017-09-11T09:00:10.533Z,99.99
2017-09-11T09:01:10.837Z,99.99
2017-09-11T09:02:10.828Z,99.99
2017-09-11T09:03:10.493Z,99.99
2017-09-11T09:04:10.805Z,99.99
2017-09-11T09:05:10.469Z,99.99
2017-09-11T09:06:10.459Z,99.99
2017-09-11T09:07:10.445Z,99.99
2017-09-11T09:08:10.437Z,99.99
2017-09-11T09:09:10.423Z,99.99
2017-09-11T09:10:10.740Z,99.99
2017-09-11T09:11:10.393Z,99.99
2017-09-11T09:12:10.709Z,99.99
2017-09-11T09:13:10.373Z,99.99
2017-09-11T09:14:10.366Z,99.99
2017-09-11T09:15:10.350Z,99.99
2017-09-11T09:16:10.667Z,99.99
2017-09-11T09:17:10.326Z,99.99
2017-09-11T09:18:10.631Z,99.99
2017-09-11T09:19:10.627Z,99.99
2017-09-11T09:20:10.616Z,99.99
2017-09-11T09:21:10.281Z,99.99
2017-09-11T09:22:10.593Z,99.99
2017-09-11T09:23:10.577Z,99.99
2017-09-11T09:24:10.567Z,99.99
2017-09-11T09:25:10.233Z,99.99
2017-09-11T09:26:10.226Z,99.99
2017-09-11T09:27:10.208Z,99.99
2017-09-11T09:28:10.515Z,99.99
2017-09-11T09:29:10.192Z,99.99
2017-09-11T09:30:10.186Z,99.99
2017-09-11T09:31:10.489Z,99.99
2017-09-11T09:32:10.477Z,99.99
2017-09-11T09:33:10.465Z,99.99
2017-09-11T09:34:10.460Z,99.99
2017-09-11T09:35:10.122Z,99.99
2017-09-11T09:36:10.433Z,99.99
2017-09-11T09:37:10.108Z,99.99
2017-09-11T09:38:10.090Z,99.99
2017-09-11T09:39:10.397Z,99.99
2017-09-11T09:40:10.068Z,99.99
2017-09-11T09:41:10.377Z,99.99
2017-09-11T09:42:10.368Z,99.99
2017-09-11T09:43:10.358Z,99.99
2017-09-11T09:44:10.022Z,99.99
2017-09-11T09:45:10.017Z,99.99
2017-09-11T09:46:10.321Z,99.99
2017-09-11T09:47:09.992Z,99.99
2017-09-11T09:48:09.976Z,99.99
2017-09-11T09:49:09.968Z,99.99
2017-09-11T09:50:10.275Z,99.99
2017-09-11T09:51:09.946Z,99.99
2017-09-11T09:52:10.250Z,99.99
2017-09-11T09:53:09.925Z,99.99
2017-09-11T09:54:10.226Z,99.99
2017-09-11T09:55:09.894Z,99.99
2017-09-11T09:56:10.215Z,99.99
2017-09-11T09:57:10.194Z,99.99
2017-09-11T09:58:09.890Z,99.99
2017-09-11T09:59:10.175Z,99.99
2017-09-11T10:00:10.186Z,99.99
2017-09-11T10:01:09.826Z,99.99
2017-09-11T10:02:10.138Z,99.99
2017-09-11T10:03:09.802Z,99.99
2017-09-11T10:04:09.812Z,99.99
2017-09-11T10:05:09.785Z,99.99
2017-09-11T10:06:09.777Z,99.99
2017-09-11T10:07:09.760Z,99.99
2017-09-11T10:08:10.072Z,99.99
2017-09-11T10:09:10.058Z,99.99
2017-09-11T10:10:10.049Z,99.99
2017-09-11T10:11:10.034Z,99.99
2017-09-11T10:12:10.035Z,99.99
2017-09-11T10:13:10.018Z,99.99
2017-09-11T10:14:09.680Z,99.99
2017-09-11T10:15:09.990Z,99.99
2017-09-11T10:16:09.662Z,99.99
2017-09-11T10:17:09.973Z,99.99
2017-09-11T10:18:09.634Z,99.99
2017-09-11T10:19:09.946Z,99.99
2017-09-11T10:20:09.939Z,99.99
2017-09-11T10:21:09.596Z,99.99
2017-09-11T10:22:09.587Z,99.99
2017-09-11T10:23:09.576Z,99.99
2017-09-11T10:24:09.767Z,99.99
2017-09-11T10:25:09.555Z,99.99
2017-09-11T10:26:09.860Z,99.99
2017-09-11T10:27:09.851Z,99.99
2017-09-11T10:28:09.838Z,99.99
2017-09-11T10:29:09.827Z,99.99
2017-09-11T10:30:09.816Z,99.99
2017-09-11T10:31:09.805Z,99.99
2017-09-11T10:32:09.792Z,99.99
2017-09-11T10:33:09.783Z,99.99
2017-09-11T10:34:09.451Z,99.99
2017-09-11T10:35:09.761Z,99.99
2017-09-11T10:36:09.758Z,99.99
2017-09-11T10:37:09.736Z,99.99
2017-09-11T10:38:09.734Z,99.99
2017-09-11T10:39:09.711Z,99.99
2017-09-11T10:40:09.703Z,99.99
2017-09-11T10:41:09.699Z,99.99
2017-09-11T10:42:09.359Z,99.99
2017-09-11T10:43:09.677Z,99.99
2017-09-11T10:44:09.337Z,99.99
2017-09-11T10:45:09.648Z,99.99
2017-09-11T10:46:09.633Z,99.99
2017-09-11T10:47:09.628Z,99.99
2017-09-11T10:48:09.611Z,99.99
2017-09-11T10:49:09.617Z,99.99
2017-09-11T10:50:09.271Z,99.99
2017-09-11T10:51:09.588Z,99.99
2017-09-11T10:52:09.573Z,99.99
2017-09-11T10:53:09.560Z,99.99
2017-09-11T10:54:09.226Z,99.99
2017-09-11T10:55:09.549Z,99.99
2017-09-11T10:56:09.207Z,99.99
2017-09-11T10:57:09.524Z,99.99
2017-09-11T10:58:09.503Z,99.99
2017-09-11T10:59:09.175Z,99.99
2017-09-11T11:00:09.482Z,99.99
2017-09-11T11:01:09.473Z,99.99
2017-09-11T11:02:09.462Z,99.99
2017-09-11T11:03:09.119Z,99.99
2017-09-11T11:04:09.436Z,99.99
2017-09-11T11:05:09.424Z,99.99
2017-09-11T11:06:09.411Z,99.99
2017-09-11T11:07:09.394Z,99.99
2017-09-11T11:08:09.063Z,99.99
2017-09-11T11:09:09.377Z,99.99
2017-09-11T11:10:09.358Z,99.99
2017-09-11T11:11:09.023Z,99.99
2017-09-11T11:12:09.010Z,99.99
2017-09-11T11:13:09.324Z,99.99
2017-09-11T11:14:08.989Z,99.99
2017-09-11T11:15:09.291Z,99.99
2017-09-11T11:16:08.960Z,99.99
2017-09-11T11:17:09.295Z,99.99
2017-09-11T11:18:08.932Z,99.99
2017-09-11T11:19:09.243Z,99.99
2017-09-11T11:20:08.913Z,99.99
2017-09-11T11:21:08.900Z,99.99
2017-09-11T11:22:08.897Z,99.99
2017-09-11T11:23:09.215Z,99.99
2017-09-11T11:24:08.875Z,99.99
2017-09-11T11:25:08.865Z,99.99
2017-09-11T11:26:09.179Z,99.99
2017-09-11T11:27:08.845Z,99.99
2017-09-11T11:28:08.837Z,99.99
2017-09-11T11:29:08.829Z,99.99
2017-09-11T11:30:08.825Z,99.99
2017-09-11T11:31:09.155Z,99.99
2017-09-11T11:32:09.135Z,99.99
2017-09-11T11:33:09.130Z,99.99
2017-09-11T11:34:08.803Z,99.99
2017-09-11T11:35:09.116Z,99.99
2017-09-11T11:36:09.114Z,99.99
2017-09-11T11:37:08.793Z,99.99
2017-09-11T11:38:09.097Z,99.99
2017-09-11T11:39:08.772Z,99.99
2017-09-11T11:40:09.089Z,99.99
2017-09-11T11:41:09.083Z,99.99
2017-09-11T11:42:08.755Z,99.99
2017-09-11T11:43:08.758Z,99.99
2017-09-11T11:44:09.066Z,99.99
2017-09-11T11:45:08.747Z,99.99
2017-09-11T11:46:08.740Z,99.99
2017-09-11T11:47:08.735Z,99.99
2017-09-11T11:48:08.731Z,99.99
2017-09-11T11:49:09.046Z,99.99
2017-09-11T11:50:09.035Z,99.99
2017-09-11T11:51:08.740Z,99.99
2017-09-11T11:52:09.026Z,99.99
2017-09-11T11:53:08.700Z,99.99
2017-09-11T11:54:08.700Z,99.99
2017-09-11T11:55:08.689Z,99.99
2017-09-11T11:56:09.006Z,99.99
2017-09-11T11:57:08.681Z,99.99
2017-09-11T11:58:08.672Z,99.99
2017-09-11T11:59:08.992Z,99.99
2017-09-11T12:00:08.981Z,99.99
2017-09-11T12:01:08.978Z,99.99
2017-09-11T12:02:08.968Z,99.99
2017-09-11T12:03:08.643Z,99.99
2017-09-11T12:04:08.956Z,99.99
2017-09-11T12:05:08.950Z,99.99
2017-09-11T12:06:08.616Z,99.99
2017-09-11T12:07:08.929Z,99.99
2017-09-11T12:08:08.608Z,99.99
2017-09-11T12:09:08.593Z,99.99
2017-09-11T12:10:08.586Z,99.99
2017-09-11T12:11:08.905Z,99.99
2017-09-11T12:12:08.571Z,99.98
2017-09-11T12:13:08.887Z,97.71
2017-09-11T12:14:08.879Z,96.7
2017-09-11T12:15:08.881Z,94.49
2017-09-11T12:16:08.866Z,92.32
2017-09-11T12:17:08.864Z,91.41
2017-09-11T12:18:08.533Z,93.48
2017-09-11T12:19:08.850Z,93.44
2017-09-11T12:20:08.842Z,95.4
2017-09-11T12:21:08.512Z,96.37
2017-09-11T12:22:08.511Z,98.19
2017-09-11T12:23:08.823Z,97.14
2017-09-11T12:24:09.022Z,97.47
2017-09-11T12:25:08.489Z,98.05
2017-09-11T12:26:08.805Z,97.76
2017-09-11T12:27:08.474Z,98.72
2017-09-11T12:28:08.790Z,98.24
2017-09-11T12:29:08.458Z,97.76
2017-09-11T12:30:08.455Z,99.54
2017-09-11T12:31:08.760Z,99.34
2017-09-11T12:32:08.759Z,99.25
2017-09-11T12:33:08.743Z,99.99
2017-09-11T12:34:08.416Z,99.99
2017-09-11T12:35:08.407Z,99.99
2017-09-11T12:36:08.725Z,99.99
2017-09-11T12:37:08.713Z,99.99
2017-09-11T12:38:08.378Z,99.99
2017-09-11T12:39:08.690Z,99.99
2017-09-11T12:40:08.677Z,99.99
2017-09-11T12:41:08.687Z,99.99
2017-09-11T12:42:08.667Z,99.99
2017-09-11T12:43:08.652Z,99.99
2017-09-11T12:44:08.647Z,99.99
2017-09-11T12:45:08.314Z,99.99
2017-09-11T12:46:08.625Z,99.99
2017-09-11T12:47:08.613Z,99.99
2017-09-11T12:48:08.283Z,99.99
2017-09-11T12:49:08.271Z,99.99
2017-09-11T12:50:08.261Z,99.99
2017-09-11T12:51:08.576Z,99.99
2017-09-11T12:52:08.562Z,99.99
2017-09-11T12:53:08.553Z,99.99